Terminal Aerodrome Forecast
Issued by NWS Omaha/Valley, NE

Home | Current Version | Previous Version | Text Only | Print | Product List | Glossary Off
Versions: 1 2 3 4 5 6 7 8 9 10 11 12 13 14 15 16 17 18 19 20 21 22 23 24 25 26 27 28 29 30 31 32 33 34 35 36 37 38 39 40 41 42 43 44 45 46

000
FTUS43 KOAX 250520
TAFOFK
TAF
KOFK 250520Z 2506/2606 VRB03KT P6SM SCT025 OVC040
      TEMPO 2506/2509 5SM -SHRA OVC025
     FM250900 VRB03KT 5SM BR OVC025
      TEMPO 2509/2513 3SM -SHRA BR BKN007 OVC015
     FM251300 19004KT 4SM BR OVC015
     FM251600 18007KT P6SM OVC025
     FM251900 19010KT P6SM OVC035 PROB30 2521/2524 5SM -SHRA=

USA.gov is the U.S. government's official web portal to all federal, state and local government web resources and services.